createdAt,value
2022-09-27T00:00:45.594Z,99.99
2022-09-27T00:01:45.615Z,99.99
2022-09-27T00:02:45.576Z,99.99
2022-09-27T00:03:45.483Z,99.99
2022-09-27T00:04:45.428Z,99.99
2022-09-27T00:05:45.390Z,99.99
2022-09-27T00:06:45.348Z,99.99
2022-09-27T00:07:45.305Z,99.99
2022-09-27T00:08:45.265Z,99.99
2022-09-27T00:09:45.241Z,99.99
2022-09-27T00:10:45.183Z,99.99
2022-09-27T00:11:45.144Z,99.99
2022-09-27T00:12:45.951Z,99.99
2022-09-27T00:13:45.846Z,99.99
2022-09-27T00:14:45.027Z,99.99
2022-09-27T00:15:45.908Z,99.99
2022-09-27T00:16:45.744Z,99.99
2022-09-27T00:17:45.911Z,99.99
2022-09-27T00:18:44.865Z,99.99
2022-09-27T00:19:45.736Z,99.99
2022-09-27T00:20:45.766Z,99.99
2022-09-27T00:21:45.627Z,99.99
2022-09-27T00:22:45.421Z,99.99
2022-09-27T00:23:45.297Z,99.99
2022-09-27T00:24:45.361Z,99.99
2022-09-27T00:25:45.526Z,99.99
2022-09-27T00:26:45.346Z,99.99
2022-09-27T00:27:45.542Z,99.99
2022-09-27T00:28:45.218Z,99.99
2022-09-27T00:29:45.147Z,99.99
2022-09-27T00:30:44.493Z,99.99
2022-09-27T00:31:44.329Z,99.99
2022-09-27T00:32:45.212Z,99.99
2022-09-27T00:33:44.255Z,99.99
2022-09-27T00:34:44.876Z,99.99
2022-09-27T00:35:45.026Z,99.99
2022-09-27T00:36:44.607Z,99.99
2022-09-27T00:37:45.061Z,99.99
2022-09-27T00:38:44.048Z,99.99
2022-09-27T00:39:44.650Z,99.99
2022-09-27T00:40:44.013Z,99.99
2022-09-27T00:41:43.925Z,99.99
2022-09-27T00:42:43.893Z,99.99
2022-09-27T00:43:43.840Z,99.99
2022-09-27T00:44:43.798Z,99.99
2022-09-27T00:45:43.768Z,99.99
2022-09-27T00:46:44.648Z,99.99
2022-09-27T00:47:43.741Z,99.99
2022-09-27T00:48:43.635Z,99.99
2022-09-27T00:49:44.530Z,99.99
2022-09-27T00:50:43.569Z,99.99
2022-09-27T00:51:43.517Z,99.99
2022-09-27T00:52:44.063Z,99.99
2022-09-27T00:53:44.064Z,99.99
2022-09-27T00:54:43.391Z,99.99
2022-09-27T00:55:43.353Z,99.99
2022-09-27T00:56:43.326Z,99.99
2022-09-27T00:57:43.401Z,99.99
2022-09-27T00:58:43.263Z,99.99
2022-09-27T00:59:43.189Z,99.99
2022-09-27T01:00:43.164Z,99.99
2022-09-27T01:01:43.142Z,99.99
2022-09-27T01:02:43.176Z,99.99
2022-09-27T01:03:44.027Z,99.99
2022-09-27T01:04:43.011Z,99.99
2022-09-27T01:05:42.943Z,99.99
2022-09-27T01:06:43.123Z,99.99
2022-09-27T01:07:42.863Z,99.99
2022-09-27T01:08:42.821Z,99.99
2022-09-27T01:09:42.781Z,99.99
2022-09-27T01:10:42.742Z,99.99
2022-09-27T01:11:42.733Z,99.99
2022-09-27T01:12:42.671Z,99.99
2022-09-27T01:13:42.617Z,99.99
2022-09-27T01:14:42.586Z,99.99
2022-09-27T01:15:42.584Z,99.99
2022-09-27T01:16:42.496Z,99.99
2022-09-27T01:17:42.460Z,99.99
2022-09-27T01:18:42.417Z,99.99
2022-09-27T01:19:42.372Z,99.99
2022-09-27T01:20:42.350Z,99.99
2022-09-27T01:21:42.309Z,99.99
2022-09-27T01:22:42.251Z,99.99
2022-09-27T01:23:42.216Z,99.99
2022-09-27T01:24:42.169Z,99.99
2022-09-27T01:25:42.137Z,99.99
2022-09-27T01:26:42.089Z,99.99
2022-09-27T01:27:42.060Z,99.99
2022-09-27T01:28:42.009Z,99.99
2022-09-27T01:29:41.966Z,99.99
2022-09-27T01:30:41.997Z,99.99
2022-09-27T01:31:41.887Z,99.99
2022-09-27T01:32:41.845Z,99.99
2022-09-27T01:33:41.815Z,99.99
2022-09-27T01:34:41.770Z,99.99
2022-09-27T01:35:41.720Z,99.99
2022-09-27T01:36:41.683Z,99.99
2022-09-27T01:37:41.642Z,99.99
2022-09-27T01:38:41.609Z,99.99
2022-09-27T01:39:41.573Z,99.99
2022-09-27T01:40:41.601Z,99.99
2022-09-27T01:41:41.477Z,99.99
2022-09-27T01:42:41.442Z,99.99
2022-09-27T01:43:41.392Z,99.99
2022-09-27T01:44:41.354Z,99.99
2022-09-27T01:45:41.322Z,99.99
2022-09-27T01:46:41.315Z,99.99
2022-09-27T01:47:41.232Z,99.99
2022-09-27T01:48:41.796Z,99.99
2022-09-27T01:49:41.906Z,99.99
2022-09-27T01:50:41.800Z,99.99
2022-09-27T01:51:41.067Z,99.99
2022-09-27T01:52:41.029Z,99.99
2022-09-27T01:53:40.988Z,99.99
2022-09-27T01:54:40.946Z,99.99
2022-09-27T01:55:40.917Z,99.99
2022-09-27T01:56:40.863Z,99.99
2022-09-27T01:57:40.829Z,99.99
2022-09-27T01:58:40.784Z,99.99
2022-09-27T01:59:40.744Z,99.99
2022-09-27T02:00:40.698Z,99.99
2022-09-27T02:01:40.715Z,99.99
2022-09-27T02:02:40.659Z,99.99
2022-09-27T02:03:40.578Z,99.99
2022-09-27T02:04:40.539Z,99.99
2022-09-27T02:05:40.492Z,99.99
2022-09-27T02:06:40.471Z,99.99
2022-09-27T02:07:40.416Z,99.99
2022-09-27T02:08:40.374Z,99.99
2022-09-27T02:09:40.332Z,99.99
2022-09-27T02:10:40.292Z,99.99
2022-09-27T02:11:40.253Z,99.99
2022-09-27T02:12:40.218Z,99.99
2022-09-27T02:13:40.172Z,99.99
2022-09-27T02:14:40.131Z,99.99
2022-09-27T02:15:40.139Z,99.99
2022-09-27T02:16:40.047Z,99.99
2022-09-27T02:17:40.018Z,99.99
2022-09-27T02:18:39.969Z,99.99
2022-09-27T02:19:39.947Z,99.99
2022-09-27T02:20:39.888Z,99.99
2022-09-27T02:21:39.838Z,99.99
2022-09-27T02:22:39.804Z,99.99
2022-09-27T02:23:39.774Z,99.99
2022-09-27T02:24:39.723Z,99.99
2022-09-27T02:25:39.679Z,99.99
2022-09-27T02:26:39.641Z,99.99
2022-09-27T02:27:39.596Z,99.99
2022-09-27T02:28:39.570Z,99.99
2022-09-27T02:29:39.518Z,99.99
2022-09-27T02:30:39.550Z,99.99
2022-09-27T02:31:39.433Z,99.99
2022-09-27T02:32:39.394Z,99.99
2022-09-27T02:33:39.351Z,99.99
2022-09-27T02:34:39.351Z,99.99
2022-09-27T02:35:39.271Z,99.99
2022-09-27T02:36:39.231Z,99.99
2022-09-27T02:37:39.186Z,99.99
2022-09-27T02:38:39.149Z,99.99
2022-09-27T02:39:39.105Z,99.99
2022-09-27T02:40:39.151Z,99.99
2022-09-27T02:41:39.026Z,99.99
2022-09-27T02:42:38.986Z,99.99
2022-09-27T02:43:38.954Z,99.99
2022-09-27T02:44:38.903Z,99.99
2022-09-27T02:45:38.879Z,99.99
2022-09-27T02:46:38.833Z,99.99
2022-09-27T02:47:38.780Z,99.99
2022-09-27T02:48:38.738Z,99.99
2022-09-27T02:49:38.698Z,99.99
2022-09-27T02:50:38.661Z,99.99
2022-09-27T02:51:38.616Z,99.99
2022-09-27T02:52:38.592Z,99.99
2022-09-27T02:53:38.563Z,99.99
2022-09-27T02:54:38.497Z,99.99
2022-09-27T02:55:38.454Z,99.99
2022-09-27T02:56:38.414Z,99.99
2022-09-27T02:57:38.371Z,99.99
2022-09-27T02:58:38.344Z,99.99
2022-09-27T02:59:38.289Z,99.99
2022-09-27T03:00:38.250Z,99.99
2022-09-27T03:01:38.390Z,99.99
2022-09-27T03:02:38.231Z,99.99
2022-09-27T03:03:38.128Z,99.99
2022-09-27T03:04:38.109Z,99.99
2022-09-27T03:05:38.045Z,99.99
2022-09-27T03:06:38.008Z,99.99
2022-09-27T03:07:37.964Z,99.99
2022-09-27T03:08:37.928Z,99.99
2022-09-27T03:09:37.886Z,99.99
2022-09-27T03:10:37.855Z,99.99
2022-09-27T03:11:37.802Z,99.99
2022-09-27T03:12:37.761Z,99.99
2022-09-27T03:13:55.517Z,99.99
2022-09-27T03:14:37.681Z,99.99
2022-09-27T03:15:37.654Z,99.99
2022-09-27T03:16:37.673Z,99.99
2022-09-27T03:17:37.553Z,99.99
2022-09-27T03:18:37.515Z,99.99
2022-09-27T03:19:37.472Z,99.99
2022-09-27T03:20:37.442Z,99.99
2022-09-27T03:21:37.398Z,99.99
2022-09-27T03:22:37.355Z,99.99
2022-09-27T03:23:37.310Z,99.99
2022-09-27T03:24:37.269Z,99.99
2022-09-27T03:25:37.238Z,99.99
2022-09-27T03:26:37.190Z,99.99
2022-09-27T03:27:37.146Z,99.99
2022-09-27T03:28:37.117Z,99.99
2022-09-27T03:29:37.063Z,99.99
2022-09-27T03:30:37.071Z,99.99
2022-09-27T03:31:36.982Z,99.99
2022-09-27T03:32:40.819Z,99.99
2022-09-27T03:33:36.905Z,99.99
2022-09-27T03:34:36.873Z,99.99
2022-09-27T03:35:36.819Z,99.99
2022-09-27T03:36:36.781Z,99.99
2022-09-27T03:37:36.737Z,99.99
2022-09-27T03:38:36.709Z,99.99
2022-09-27T03:39:36.654Z,99.99
2022-09-27T03:40:36.685Z,99.99
2022-09-27T03:41:36.577Z,99.99
2022-09-27T03:42:36.537Z,99.99
2022-09-27T03:43:36.493Z,99.99
2022-09-27T03:44:36.463Z,99.99
2022-09-27T03:45:36.411Z,99.99
2022-09-27T03:46:36.492Z,99.99
2022-09-27T03:47:36.878Z,99.99
2022-09-27T03:48:36.287Z,99.99
2022-09-27T03:49:36.245Z,99.99
2022-09-27T03:50:36.223Z,99.99
2022-09-27T03:51:36.167Z,99.99
2022-09-27T03:52:36.124Z,99.99
2022-09-27T03:53:36.095Z,99.99
2022-09-27T03:54:36.041Z,99.99
2022-09-27T03:55:36.000Z,99.99
2022-09-27T03:56:35.959Z,99.99
2022-09-27T03:57:35.922Z,99.99
2022-09-27T03:58:35.879Z,99.99
2022-09-27T03:59:35.844Z,99.99
2022-09-27T04:00:35.806Z,99.99
2022-09-27T04:01:35.878Z,99.99
2022-09-27T04:02:35.759Z,99.99
2022-09-27T04:03:35.670Z,99.99
2022-09-27T04:04:35.637Z,99.99
2022-09-27T04:05:35.589Z,99.99
2022-09-27T04:06:35.566Z,99.99
2022-09-27T04:07:35.514Z,99.99
2022-09-27T04:08:35.465Z,99.99
2022-09-27T04:09:35.425Z,99.99
2022-09-27T04:10:35.387Z,99.99
2022-09-27T04:11:35.343Z,99.99
2022-09-27T04:12:35.316Z,99.99
2022-09-27T04:13:35.290Z,99.99
2022-09-27T04:14:35.229Z,99.99
2022-09-27T04:15:35.181Z,99.99
2022-09-27T04:16:35.194Z,99.99
2022-09-27T04:17:35.095Z,99.99
2022-09-27T04:18:35.059Z,99.99
2022-09-27T04:19:35.033Z,99.99
2022-09-27T04:20:35.164Z,99.99
2022-09-27T04:21:34.935Z,99.99
2022-09-27T04:22:35.554Z,99.99
2022-09-27T04:23:34.849Z,99.99
2022-09-27T04:24:34.816Z,99.99
2022-09-27T04:25:35.639Z,99.99
2022-09-27T04:26:34.728Z,99.99
2022-09-27T04:27:34.685Z,99.99
2022-09-27T04:28:34.646Z,99.99
2022-09-27T04:29:35.594Z,99.99
2022-09-27T04:30:35.175Z,99.99
2022-09-27T04:31:34.557Z,99.99
2022-09-27T04:32:35.131Z,99.99
2022-09-27T04:33:34.442Z,99.99
2022-09-27T04:34:34.397Z,99.99
2022-09-27T04:35:35.060Z,99.99
2022-09-27T04:36:34.313Z,99.99
2022-09-27T04:37:34.289Z,99.99
2022-09-27T04:38:34.239Z,99.99
2022-09-27T04:39:34.194Z,99.99
2022-09-27T04:40:34.228Z,99.99
2022-09-27T04:41:34.118Z,99.99
2022-09-27T04:42:34.090Z,99.99
2022-09-27T04:43:34.032Z,99.99
2022-09-27T04:44:33.998Z,99.99
2022-09-27T04:45:33.959Z,99.99
2022-09-27T04:46:33.963Z,99.99
2022-09-27T04:47:33.881Z,99.99
2022-09-27T04:48:33.824Z,99.99
2022-09-27T04:49:33.779Z,99.99
2022-09-27T04:50:35.946Z,99.99
2022-09-27T04:51:33.698Z,99.99
2022-09-27T04:52:33.660Z,99.99
2022-09-27T04:53:33.632Z,99.99
2022-09-27T04:54:33.577Z,99.99
2022-09-27T04:55:33.586Z,99.99
2022-09-27T04:56:33.493Z,99.99
2022-09-27T04:57:33.451Z,99.99
2022-09-27T04:58:33.414Z,99.99
2022-09-27T04:59:33.369Z,99.99
2022-09-27T05:00:33.364Z,99.99
2022-09-27T05:01:33.366Z,99.99
2022-09-27T05:02:33.289Z,99.99
2022-09-27T05:03:33.207Z,99.99
2022-09-27T05:04:33.166Z,99.99
2022-09-27T05:05:33.122Z,99.99
2022-09-27T05:06:33.099Z,99.99
2022-09-27T05:07:33.038Z,99.99
2022-09-27T05:08:33.005Z,99.99
2022-09-27T05:09:32.966Z,99.99
2022-09-27T05:10:32.917Z,99.99
2022-09-27T05:11:32.872Z,99.99
2022-09-27T05:12:32.848Z,99.99
2022-09-27T05:13:32.789Z,99.99
2022-09-27T05:14:32.754Z,99.99
2022-09-27T05:15:32.709Z,99.99
2022-09-27T05:16:34.026Z,99.99
2022-09-27T05:17:32.626Z,99.99
2022-09-27T05:18:32.599Z,99.99
2022-09-27T05:19:32.553Z,99.99
2022-09-27T05:20:32.509Z,99.99
2022-09-27T05:21:32.472Z,99.99
2022-09-27T05:22:32.438Z,99.99
2022-09-27T05:23:32.375Z,99.99
2022-09-27T05:24:32.341Z,99.99
2022-09-27T05:25:32.298Z,99.99
2022-09-27T05:26:32.257Z,99.99
2022-09-27T05:27:32.212Z,99.99
2022-09-27T05:28:32.187Z,99.99
2022-09-27T05:29:32.133Z,99.99
2022-09-27T05:30:32.132Z,99.99
2022-09-27T05:31:32.050Z,99.99
2022-09-27T05:32:32.008Z,99.99
2022-09-27T05:33:31.969Z,99.99
2022-09-27T05:34:31.940Z,99.99
2022-09-27T05:35:31.900Z,99.99
2022-09-27T05:36:31.855Z,99.99
2022-09-27T05:37:31.806Z,99.99
2022-09-27T05:38:32.620Z,99.99
2022-09-27T05:39:31.717Z,99.99
2022-09-27T05:40:43.357Z,99.99
2022-09-27T05:41:31.864Z,99.99
2022-09-27T05:42:31.610Z,99.99
2022-09-27T05:43:31.572Z,99.99
2022-09-27T05:44:31.549Z,99.99
2022-09-27T05:45:31.474Z,99.99
2022-09-27T05:46:31.739Z,99.99
2022-09-27T05:47:31.388Z,99.99
2022-09-27T05:48:32.078Z,99.99
2022-09-27T05:49:31.308Z,99.99
2022-09-27T05:50:31.271Z,99.99
2022-09-27T05:51:31.222Z,99.99
2022-09-27T05:52:31.199Z,99.99
2022-09-27T05:53:31.143Z,99.99
2022-09-27T05:54:31.102Z,99.99
2022-09-27T05:55:31.063Z,99.99
2022-09-27T05:56:31.018Z,99.99
2022-09-27T05:57:30.980Z,99.99
2022-09-27T05:58:31.050Z,99.99
2022-09-27T05:59:30.916Z,99.99
2022-09-27T06:00:30.854Z,99.99
2022-09-27T06:01:30.859Z,99.99
2022-09-27T06:02:30.839Z,99.99
2022-09-27T06:03:30.730Z,99.99
2022-09-27T06:04:30.700Z,99.99
2022-09-27T06:05:30.648Z,99.99
2022-09-27T06:06:30.605Z,99.99
2022-09-27T06:07:30.598Z,99.99
2022-09-27T06:08:30.522Z,99.99
2022-09-27T06:09:30.482Z,99.99
2022-09-27T06:10:30.453Z,99.99
2022-09-27T06:11:30.400Z,99.99
2022-09-27T06:12:30.356Z,99.99
2022-09-27T06:13:30.317Z,99.99
2022-09-27T06:14:30.276Z,99.99
2022-09-27T06:15:30.238Z,99.99
2022-09-27T06:16:30.248Z,99.99
2022-09-27T06:17:30.155Z,99.99
2022-09-27T06:18:30.112Z,99.99
2022-09-27T06:19:30.070Z,99.99
2022-09-27T06:20:30.028Z,99.99
2022-09-27T06:21:29.990Z,99.99
2022-09-27T06:22:29.963Z,99.99
2022-09-27T06:23:29.907Z,99.99
2022-09-27T06:24:29.891Z,99.99
2022-09-27T06:25:29.850Z,99.99
2022-09-27T06:26:29.797Z,99.99
2022-09-27T06:27:29.742Z,99.99
2022-09-27T06:28:29.716Z,99.99
2022-09-27T06:29:29.668Z,99.99
2022-09-27T06:30:29.640Z,99.99
2022-09-27T06:31:29.579Z,99.99
2022-09-27T06:32:29.578Z,99.99
2022-09-27T06:33:29.517Z,99.99
2022-09-27T06:34:29.458Z,99.99
2022-09-27T06:35:29.418Z,99.99
2022-09-27T06:36:29.375Z,99.99
2022-09-27T06:37:29.333Z,99.99
2022-09-27T06:38:29.293Z,99.99
2022-09-27T06:39:29.267Z,99.99
2022-09-27T06:40:29.251Z,99.99
2022-09-27T06:41:29.175Z,99.99
2022-09-27T06:42:29.134Z,99.99
2022-09-27T06:43:29.103Z,99.99
2022-09-27T06:44:29.047Z,99.99
2022-09-27T06:45:29.020Z,99.99
2022-09-27T06:46:28.994Z,99.99
2022-09-27T06:47:28.927Z,99.99
2022-09-27T06:48:28.883Z,99.99
2022-09-27T06:49:28.844Z,99.99
2022-09-27T06:50:28.801Z,99.99
2022-09-27T06:51:28.770Z,99.99
2022-09-27T06:52:28.720Z,99.99
2022-09-27T06:53:28.680Z,99.99
2022-09-27T06:54:28.639Z,99.99
2022-09-27T06:55:28.599Z,99.99
2022-09-27T06:56:28.571Z,99.99
2022-09-27T06:57:28.518Z,99.99
2022-09-27T06:58:28.476Z,99.99
2022-09-27T06:59:28.435Z,99.99
2022-09-27T07:00:28.401Z,99.99
2022-09-27T07:01:28.503Z,99.99
2022-09-27T07:02:28.353Z,99.99
2022-09-27T07:03:32.925Z,99.99
2022-09-27T07:04:28.258Z,99.99
2022-09-27T07:05:28.196Z,99.99
2022-09-27T07:06:28.158Z,99.99
2022-09-27T07:07:28.121Z,99.99
2022-09-27T07:08:28.076Z,99.99
2022-09-27T07:09:28.041Z,99.99
2022-09-27T07:10:28.001Z,99.99
2022-09-27T07:11:27.946Z,99.99
2022-09-27T07:12:27.905Z,99.99
2022-09-27T07:13:27.866Z,99.99
2022-09-27T07:14:27.827Z,99.99
2022-09-27T07:15:27.785Z,99.99
2022-09-27T07:16:27.772Z,99.99
2022-09-27T07:17:27.703Z,99.99
2022-09-27T07:18:27.666Z,99.99
2022-09-27T07:19:27.644Z,99.99
2022-09-27T07:20:27.580Z,99.99
2022-09-27T07:21:27.543Z,99.99
2022-09-27T07:22:27.512Z,99.99
2022-09-27T07:23:27.459Z,99.99
2022-09-27T07:24:27.419Z,99.99
2022-09-27T07:25:27.378Z,99.99
2022-09-27T07:26:27.337Z,99.99
2022-09-27T07:27:27.292Z,99.99
2022-09-27T07:28:27.279Z,99.99
2022-09-27T07:29:27.217Z,99.99
2022-09-27T07:30:27.418Z,99.99
2022-09-27T07:31:27.143Z,99.99
2022-09-27T07:32:27.092Z,99.99
2022-09-27T07:33:27.051Z,99.99
2022-09-27T07:34:27.025Z,99.99
2022-09-27T07:35:26.972Z,99.99
2022-09-27T07:36:26.928Z,99.99
2022-09-27T07:37:26.887Z,99.99
2022-09-27T07:38:26.850Z,99.99
2022-09-27T07:39:26.807Z,99.99
2022-09-27T07:40:26.871Z,99.99
2022-09-27T07:41:26.727Z,99.99
2022-09-27T07:42:26.682Z,99.99
2022-09-27T07:43:27.192Z,99.99
2022-09-27T07:44:26.602Z,99.99
2022-09-27T07:45:26.564Z,99.99
2022-09-27T07:46:26.533Z,99.99
2022-09-27T07:47:35.696Z,99.99
2022-09-27T07:48:26.438Z,99.99
2022-09-27T07:49:26.399Z,99.99
2022-09-27T07:50:26.441Z,99.99
2022-09-27T07:51:26.322Z,99.99
2022-09-27T07:52:26.285Z,99.99
2022-09-27T07:53:26.235Z,99.99
2022-09-27T07:54:26.193Z,99.99
2022-09-27T07:55:26.159Z,99.99
2022-09-27T07:56:26.114Z,99.99
2022-09-27T07:57:26.073Z,99.99
2022-09-27T07:58:26.045Z,99.99
2022-09-27T07:59:25.990Z,99.99
2022-09-27T08:00:25.952Z,99.99
2022-09-27T08:01:25.930Z,99.99
2022-09-27T08:02:25.889Z,99.99
2022-09-27T08:03:25.837Z,99.99
2022-09-27T08:04:25.802Z,99.99
2022-09-27T08:05:25.758Z,99.99
2022-09-27T08:06:25.715Z,99.99
2022-09-27T08:07:25.666Z,99.99
2022-09-27T08:08:25.624Z,99.99
2022-09-27T08:09:25.585Z,99.99
2022-09-27T08:10:25.556Z,99.99
2022-09-27T08:11:25.505Z,99.99
2022-09-27T08:12:25.488Z,99.99
2022-09-27T08:13:25.424Z,99.99
2022-09-27T08:14:25.383Z,99.99
2022-09-27T08:15:25.341Z,99.99
2022-09-27T08:16:25.336Z,99.99
2022-09-27T08:17:25.264Z,99.99
2022-09-27T08:18:25.235Z,99.99
2022-09-27T08:19:25.183Z,99.99
2022-09-27T08:20:25.141Z,99.99
2022-09-27T08:21:25.105Z,99.99
2022-09-27T08:22:25.062Z,99.99
2022-09-27T08:23:25.030Z,99.99
2022-09-27T08:24:24.994Z,99.99
2022-09-27T08:25:24.942Z,99.99
2022-09-27T08:26:24.916Z,99.99
2022-09-27T08:27:25.086Z,99.99
2022-09-27T08:28:24.825Z,99.99
2022-09-27T08:29:24.797Z,99.99
2022-09-27T08:30:24.750Z,99.99
2022-09-27T08:31:24.777Z,99.99
2022-09-27T08:32:24.672Z,99.99
2022-09-27T08:33:27.567Z,99.99
2022-09-27T08:34:24.584Z,99.99
2022-09-27T08:35:24.543Z,99.99
2022-09-27T08:36:24.505Z,99.99
2022-09-27T08:37:24.475Z,99.99
2022-09-27T08:38:24.424Z,99.99
2022-09-27T08:39:24.383Z,99.99
2022-09-27T08:40:24.442Z,99.99
2022-09-27T08:41:24.310Z,99.99
2022-09-27T08:42:24.280Z,99.99
2022-09-27T08:43:24.226Z,99.99
2022-09-27T08:44:24.185Z,99.99
2022-09-27T08:45:24.193Z,99.99
2022-09-27T08:46:24.105Z,99.99
2022-09-27T08:47:24.066Z,99.99
2022-09-27T08:48:24.035Z,99.99
2022-09-27T08:49:23.985Z,99.99
2022-09-27T08:50:23.951Z,99.99
2022-09-27T08:51:23.905Z,99.99
2022-09-27T08:52:23.866Z,99.99
2022-09-27T08:53:24.763Z,99.99
2022-09-27T08:54:23.802Z,99.99
2022-09-27T08:55:23.749Z,99.99
2022-09-27T08:56:23.704Z,99.99
2022-09-27T08:57:23.666Z,99.99
2022-09-27T08:58:23.624Z,99.99
2022-09-27T08:59:23.585Z,99.99
2022-09-27T09:00:23.561Z,99.99
2022-09-27T09:01:28.492Z,99.99
2022-09-27T09:02:23.529Z,99.99
2022-09-27T09:03:23.428Z,99.99
2022-09-27T09:04:23.386Z,99.99
2022-09-27T09:05:23.346Z,99.99
2022-09-27T09:06:23.317Z,99.99
2022-09-27T09:07:23.264Z,99.99
2022-09-27T09:08:23.227Z,99.99
2022-09-27T09:09:23.185Z,99.99
2022-09-27T09:10:23.157Z,99.99
2022-09-27T09:11:23.115Z,99.99
2022-09-27T09:12:23.064Z,99.99
2022-09-27T09:13:23.042Z,99.99
2022-09-27T09:14:22.983Z,99.99
2022-09-27T09:15:22.947Z,99.99
2022-09-27T09:16:22.946Z,99.99
2022-09-27T09:17:22.875Z,99.99
2022-09-27T09:18:22.821Z,99.99
2022-09-27T09:19:22.783Z,99.99
2022-09-27T09:20:22.741Z,99.99
2022-09-27T09:21:22.705Z,99.99
2022-09-27T09:22:22.661Z,99.99
2022-09-27T09:23:22.636Z,99.99
2022-09-27T09:24:22.675Z,99.99
2022-09-27T09:25:22.545Z,99.99
2022-09-27T09:26:22.503Z,99.99
2022-09-27T09:27:22.460Z,99.99
2022-09-27T09:28:22.423Z,99.99
2022-09-27T09:29:22.399Z,99.99
2022-09-27T09:30:22.381Z,99.99
2022-09-27T09:31:22.373Z,99.99
2022-09-27T09:32:22.256Z,99.99
2022-09-27T09:33:22.234Z,99.99
2022-09-27T09:34:22.190Z,99.99
2022-09-27T09:35:22.145Z,99.99
2022-09-27T09:36:23.188Z,99.99
2022-09-27T09:37:22.088Z,99.99
2022-09-27T09:38:22.015Z,99.99
2022-09-27T09:39:21.979Z,99.99
2022-09-27T09:40:22.178Z,99.99
2022-09-27T09:41:21.905Z,99.99
2022-09-27T09:42:21.877Z,99.99
2022-09-27T09:43:21.860Z,99.99
2022-09-27T09:44:21.810Z,99.99
2022-09-27T09:45:21.741Z,99.99
2022-09-27T09:46:21.697Z,99.99
2022-09-27T09:47:21.849Z,99.99
2022-09-27T09:48:22.258Z,99.99
2022-09-27T09:49:21.593Z,99.99
2022-09-27T09:50:21.591Z,99.99
2022-09-27T09:51:21.520Z,99.99
2022-09-27T09:52:21.471Z,99.99
2022-09-27T09:53:21.546Z,99.99
2022-09-27T09:54:21.388Z,99.99
2022-09-27T09:55:21.407Z,99.99
2022-09-27T09:56:21.301Z,99.99
2022-09-27T09:57:21.273Z,99.99
2022-09-27T09:58:21.402Z,99.80
2022-09-27T09:59:21.201Z,99.40
2022-09-27T10:00:21.207Z,99.15
2022-09-27T10:01:21.219Z,99.40
2022-09-27T10:02:21.150Z,99.15
2022-09-27T10:03:21.025Z,99.55
2022-09-27T10:04:20.984Z,99.99
2022-09-27T10:05:20.959Z,99.41
2022-09-27T10:06:20.908Z,98.18
2022-09-27T10:07:20.877Z,99.30
2022-09-27T10:08:20.842Z,99.87
2022-09-27T10:09:20.792Z,99.99
2022-09-27T10:10:20.804Z,99.16
2022-09-27T10:11:20.722Z,97.83
2022-09-27T10:12:20.676Z,97.32
2022-09-27T10:13:20.641Z,97.27
2022-09-27T10:14:20.598Z,97.02
2022-09-27T10:15:20.560Z,97.78
2022-09-27T10:16:20.584Z,95.54
2022-09-27T10:17:20.488Z,94.84
2022-09-27T10:18:20.443Z,94.48
2022-09-27T10:19:20.437Z,93.92
2022-09-27T10:20:20.460Z,94.23
2022-09-27T10:21:20.328Z,94.63
2022-09-27T10:22:20.300Z,95.24
2022-09-27T10:23:20.268Z,95.29
2022-09-27T10:24:20.672Z,96.51
2022-09-27T10:25:20.179Z,97.27
2022-09-27T10:26:20.150Z,98.59
2022-09-27T10:27:20.097Z,98.59
2022-09-27T10:28:20.063Z,99.51
2022-09-27T10:29:20.034Z,99.71
2022-09-27T10:30:20.010Z,99.25
2022-09-27T10:31:19.994Z,98.94
2022-09-27T10:32:19.908Z,98.74
2022-09-27T10:33:19.867Z,99.25
2022-09-27T10:34:19.833Z,99.00
2022-09-27T10:35:23.566Z,98.43
2022-09-27T10:36:19.752Z,98.08
2022-09-27T10:37:19.710Z,99.61
2022-09-27T10:38:19.674Z,95.94
2022-09-27T10:39:19.639Z,97.92
2022-09-27T10:40:19.785Z,97.31
2022-09-27T10:41:19.593Z,96.30
2022-09-27T10:42:19.520Z,97.11
2022-09-27T10:43:19.482Z,97.62
2022-09-27T10:44:19.440Z,96.03
2022-09-27T10:45:19.402Z,95.52
2022-09-27T10:46:19.401Z,96.44
2022-09-27T10:47:19.335Z,96.28
2022-09-27T10:48:19.291Z,97.40
2022-09-27T10:49:19.248Z,97.30
2022-09-27T10:50:38.732Z,96.84
2022-09-27T10:51:19.197Z,96.54
2022-09-27T10:52:19.135Z,97.20
2022-09-27T10:53:19.104Z,97.66
2022-09-27T10:54:19.070Z,97.56
2022-09-27T10:55:19.018Z,98.48
2022-09-27T10:56:18.981Z,97.77
2022-09-27T10:57:18.979Z,99.50
2022-09-27T10:58:18.899Z,99.60
2022-09-27T10:59:18.858Z,99.50
2022-09-27T11:00:18.852Z,99.91
2022-09-27T11:01:18.827Z,99.99
2022-09-27T11:02:18.742Z,99.99
2022-09-27T11:03:18.699Z,99.99
2022-09-27T11:04:18.894Z,99.91
2022-09-27T11:05:18.659Z,99.80
2022-09-27T11:06:18.607Z,99.19
2022-09-27T11:07:18.554Z,98.32
2022-09-27T11:08:18.508Z,98.48
2022-09-27T11:09:18.466Z,99.45
2022-09-27T11:10:18.457Z,99.45
2022-09-27T11:11:18.387Z,98.02
2022-09-27T11:12:18.363Z,98.89
2022-09-27T11:13:18.307Z,99.45
2022-09-27T11:14:18.275Z,99.45
2022-09-27T11:15:18.233Z,98.54
2022-09-27T11:16:18.286Z,97.88
2022-09-27T11:17:18.156Z,97.37
2022-09-27T11:18:18.131Z,97.78
2022-09-27T11:19:18.082Z,96.15
2022-09-27T11:20:18.159Z,95.89
2022-09-27T11:21:18.006Z,96.50
2022-09-27T11:22:17.960Z,96.66
2022-09-27T11:23:17.924Z,98.24
2022-09-27T11:24:17.898Z,96.97
2022-09-27T11:25:17.845Z,96.30
2022-09-27T11:26:17.812Z,95.90
2022-09-27T11:27:17.773Z,94.68
2022-09-27T11:28:17.730Z,95.59
2022-09-27T11:29:17.709Z,96.06
2022-09-27T11:30:17.693Z,94.32
2022-09-27T11:31:19.818Z,94.27
2022-09-27T11:32:17.575Z,94.84
2022-09-27T11:33:17.542Z,93.67
2022-09-27T11:34:17.561Z,95.30
2022-09-27T11:35:17.477Z,93.47
2022-09-27T11:36:17.429Z,93.01
2022-09-27T11:37:17.388Z,94.59
2022-09-27T11:38:34.695Z,94.38
2022-09-27T11:39:17.442Z,94.28
2022-09-27T11:40:17.321Z,93.51
2022-09-27T11:41:17.234Z,94.48
2022-09-27T11:42:17.199Z,94.18
2022-09-27T11:43:17.158Z,93.71
2022-09-27T11:44:17.119Z,94.84
2022-09-27T11:45:37.379Z,94.23
2022-09-27T11:46:23.906Z,94.93
2022-09-27T11:47:17.119Z,94.32
2022-09-27T11:48:16.973Z,94.02
2022-09-27T11:49:16.993Z,93.76
2022-09-27T11:50:16.919Z,94.47
2022-09-27T11:51:16.859Z,93.25
2022-09-27T11:52:16.826Z,94.47
2022-09-27T11:53:16.775Z,94.57
2022-09-27T11:54:16.925Z,94.53
2022-09-27T11:55:16.701Z,93.62
2022-09-27T11:56:16.663Z,92.80
2022-09-27T11:57:16.625Z,93.21
2022-09-27T11:58:16.608Z,93.25
2022-09-27T11:59:18.353Z,92.80
2022-09-27T12:00:16.558Z,92.40
2022-09-27T12:01:16.471Z,92.90
2022-09-27T12:02:16.535Z,92.60
2022-09-27T12:03:16.401Z,93.41
2022-09-27T12:04:16.369Z,93.71
2022-09-27T12:05:16.317Z,92.70
2022-09-27T12:06:16.283Z,92.09
2022-09-27T12:07:16.242Z,93.21
2022-09-27T12:08:16.206Z,90.56
2022-09-27T12:09:16.251Z,92.09
2022-09-27T12:10:16.135Z,92.65
2022-09-27T12:11:16.100Z,92.14
2022-09-27T12:12:16.052Z,92.86
2022-09-27T12:13:16.013Z,92.45
2022-09-27T12:14:15.976Z,92.04
2022-09-27T12:15:15.951Z,91.03
2022-09-27T12:16:15.938Z,91.07
2022-09-27T12:17:15.882Z,91.88
2022-09-27T12:18:15.824Z,92.03
2022-09-27T12:19:15.888Z,92.48
2022-09-27T12:20:15.803Z,93.40
2022-09-27T12:21:15.716Z,95.78
2022-09-27T12:22:15.671Z,96.14
2022-09-27T12:23:15.630Z,97.66
2022-09-27T12:24:15.622Z,99.14
2022-09-27T12:25:20.283Z,99.14
2022-09-27T12:26:15.532Z,99.59
2022-09-27T12:27:15.476Z,99.99
2022-09-27T12:28:15.443Z,99.99
2022-09-27T12:29:15.475Z,99.99
2022-09-27T12:30:15.363Z,99.99
2022-09-27T12:31:28.941Z,99.99
2022-09-27T12:32:15.319Z,99.99
2022-09-27T12:33:15.242Z,99.99
2022-09-27T12:34:19.522Z,99.99
2022-09-27T12:35:15.163Z,99.99
2022-09-27T12:36:15.123Z,99.91
2022-09-27T12:37:15.085Z,99.99
2022-09-27T12:38:15.059Z,99.99
2022-09-27T12:39:15.089Z,99.99
2022-09-27T12:40:15.086Z,99.99
2022-09-27T12:41:14.926Z,99.99
2022-09-27T12:42:14.903Z,99.96
2022-09-27T12:43:14.850Z,99.99
2022-09-27T12:44:14.884Z,99.99
2022-09-27T12:45:14.772Z,99.99
2022-09-27T12:46:14.752Z,99.99
2022-09-27T12:47:14.702Z,99.99
2022-09-27T12:48:14.657Z,99.80
2022-09-27T12:49:14.710Z,99.99
2022-09-27T12:50:14.668Z,99.99
2022-09-27T12:51:14.551Z,99.55
2022-09-27T12:52:14.504Z,98.59